Rockland, MI

12:00 PM EDT on July 30, 2014 (GMT -0400)
Wisconsin Ave. (KMIONTON2) Elev 636 ft | 46.87 °N, 89.31 °W | Change Station

Current weather conditions updated 37 seconds ago

Clear
Clear
70.2 °F
Feels Like 74 °F
N
0.0
Wind Variable Wind from North
Gusts 0.0 mph

Today is forecast to be Cooler than yesterday.

Today
High -- | Low -- °F
--% Chance of Precip.
Yesterday
High -- | Low -- °F
Precip. -- in
6:34 AM 9:31 PM
Waxing Crescent, 12% visible
Pressure 30.07 in
Visibility 10.0 miles
Clouds Clear
Heat Index 74 °F
Dew Point 59 °F
Humidity 68%
Rainfall 0.00 in
Snow Depth Not available.
UV 8 out of 12
Pollen 6.00 out of 12
Air Quality Not available.
Flu Activity Not available.
METAR KLNL 301555Z AUTO 00000KT 10SM CLR 19/07 A3007 RMK AO2 T01900074

More Conditions Fewer Conditions

Pressure 30.07 in
Visibility 10.0 miles
Clouds Clear
Heat Index 74 °F
Dew Point 59 °F
Humidity 68%
Rainfall 0.00 in
Snow Depth Not available.
UV 8 out of 12
Pollen 6.00 out of 12
Air Quality Not available.
Flu Activity Not available.
METAR KLNL 301555Z AUTO 00000KT 10SM CLR 19/07 A3007 RMK AO2 T01900074

More Conditions Fewer Conditions

10-Day Weather Forecast

Almanac

Astronomy

Jul. 30, 2014 Rise Set
Actual Time 6:34 AM EDT 9:31 PM EDT
Civil Twilight 5:58 AM EDT 10:06 PM EDT
Nautical Twilight 5:13 AM EDT 10:51 PM EDT
Astronomical Twilight 4:18 AM EDT 11:46 PM EDT
Moon 10:22 AM EDT 10:55 PM EDT
Length of Visible Light 16h 07m
Length of Day
14h 56m
Tomorrow will be 2m 31s shorter.
Waxing Crescent, 12% of the Moon is Illuminated
Today
Waxing Crescent
Aug 3
First Quarter
Aug 10
Full
Aug 17
Last Quarter
Aug 25
New

Today's Extremes

State Highs State Lows

Community

WunderPhotos

Upload Photos

1,739,125 photos uploaded!

WunderBlogs® & News

By Dr. Jeff Masters
Director of Meteorology, Weather Underground
By Kari Strenfel
Meteorologist, Weather Underground
By Christopher C. Burt
Weather Historian, Weather Underground
July 30, 2014
July 30, 2014
July 30, 2014

Nearby

Snow Depth

Station Depth Elevation
No new snow has been reported.

Earthquake Activity

City Distance Mag. Time & Date
No recent earthquake activity has been reported nearby.
Minimum magnitude displayed is 2.5.

Coastal Water Temperatures

Place Temperature
No Stations Reporting

Nearby Weather Stations

Station Location Temp. Heat Index Dew Point Humidity Wind Precip. Elev Updated Type
Wisconsin Ave., Ontonagon, MI 70.2 °F 74 °F 59 °F 68% North  at  0.0 mph 0.00 in / hr 636 ft 11:59 AM EDT Normal
Mountain View Lodges, Silver City, MI / , Ontonagon, MI 64.9 °F - 60 °F 83% NNE  at  1.0 mph 0.00 in / hr 587 ft 12:00 PM EDT Normal

Show More Stations Show Fewer Stations